sensor_id;sensor_type;location;lat;lon;timestamp;temperature;humidity
20670;DHT22;10494;50.868;4.180;2022-09-30T00:00:21;8.60;99.90
20670;DHT22;10494;50.868;4.180;2022-09-30T00:02:47;8.50;99.90
20670;DHT22;10494;50.868;4.180;2022-09-30T00:05:13;8.40;99.90
20670;DHT22;10494;50.868;4.180;2022-09-30T00:07:39;8.40;99.90
20670;DHT22;10494;50.868;4.180;2022-09-30T00:10:04;8.40;99.90
20670;DHT22;10494;50.868;4.180;2022-09-30T00:12:31;8.30;99.90
20670;DHT22;10494;50.868;4.180;2022-09-30T00:14:57;8.40;99.90
20670;DHT22;10494;50.868;4.180;2022-09-30T00:17:22;8.30;99.90
20670;DHT22;10494;50.868;4.180;2022-09-30T00:19:48;8.30;99.90
20670;DHT22;10494;50.868;4.180;2022-09-30T00:22:14;8.30;99.90
20670;DHT22;10494;50.868;4.180;2022-09-30T00:24:39;8.30;99.90
20670;DHT22;10494;50.868;4.180;2022-09-30T00:27:05;8.20;99.90
20670;DHT22;10494;50.868;4.180;2022-09-30T00:29:31;8.20;99.90
20670;DHT22;10494;50.868;4.180;2022-09-30T00:31:56;8.10;99.90
20670;DHT22;10494;50.868;4.180;2022-09-30T00:34:22;8.10;99.90
20670;DHT22;10494;50.868;4.180;2022-09-30T00:36:52;8.10;99.90
20670;DHT22;10494;50.868;4.180;2022-09-30T00:39:25;8.00;99.90
20670;DHT22;10494;50.868;4.180;2022-09-30T00:41:57;8.00;99.90
20670;DHT22;10494;50.868;4.180;2022-09-30T00:50:00;7.90;99.90
20670;DHT22;10494;50.868;4.180;2022-09-30T00:52:26;7.90;99.90
20670;DHT22;10494;50.868;4.180;2022-09-30T00:54:53;7.90;99.90
20670;DHT22;10494;50.868;4.180;2022-09-30T00:57:19;7.80;99.90
20670;DHT22;10494;50.868;4.180;2022-09-30T00:59:47;7.80;99.90
20670;DHT22;10494;50.868;4.180;2022-09-30T01:02:14;7.80;99.90
20670;DHT22;10494;50.868;4.180;2022-09-30T01:04:40;7.80;99.90
20670;DHT22;10494;50.868;4.180;2022-09-30T01:07:07;7.90;99.90
20670;DHT22;10494;50.868;4.180;2022-09-30T01:09:35;7.80;99.90
20670;DHT22;10494;50.868;4.180;2022-09-30T01:12:05;7.80;99.90
20670;DHT22;10494;50.868;4.180;2022-09-30T01:14:32;7.90;99.90
20670;DHT22;10494;50.868;4.180;2022-09-30T01:17:14;7.80;99.90
20670;DHT22;10494;50.868;4.180;2022-09-30T01:29:07;7.70;99.90
20670;DHT22;10494;50.868;4.180;2022-09-30T01:32:17;7.70;99.90
20670;DHT22;10494;50.868;4.180;2022-09-30T01:35:09;7.60;99.90
20670;DHT22;10494;50.868;4.180;2022-09-30T01:40:25;7.60;99.90
20670;DHT22;10494;50.868;4.180;2022-09-30T01:43:09;7.50;99.90
20670;DHT22;10494;50.868;4.180;2022-09-30T01:45:48;7.50;99.90
20670;DHT22;10494;50.868;4.180;2022-09-30T01:53:57;7.40;99.90
20670;DHT22;10494;50.868;4.180;2022-09-30T01:56:29;7.40;99.90
20670;DHT22;10494;50.868;4.180;2022-09-30T01:59:22;7.40;99.90
20670;DHT22;10494;50.868;4.180;2022-09-30T02:07:47;7.30;99.90
20670;DHT22;10494;50.868;4.180;2022-09-30T02:10:26;7.20;99.90
20670;DHT22;10494;50.868;4.180;2022-09-30T02:13:02;7.20;99.90
20670;DHT22;10494;50.868;4.180;2022-09-30T02:15:34;7.20;99.90
20670;DHT22;10494;50.868;4.180;2022-09-30T02:18:14;7.20;99.90
20670;DHT22;10494;50.868;4.180;2022-09-30T02:20:45;7.20;99.90
20670;DHT22;10494;50.868;4.180;2022-09-30T02:23:15;7.10;99.90
20670;DHT22;10494;50.868;4.180;2022-09-30T02:25:47;7.10;99.90
20670;DHT22;10494;50.868;4.180;2022-09-30T02:28:24;7.00;99.90
20670;DHT22;10494;50.868;4.180;2022-09-30T02:30:54;7.00;99.90
20670;DHT22;10494;50.868;4.180;2022-09-30T02:33:32;6.90;99.90
20670;DHT22;10494;50.868;4.180;2022-09-30T02:36:04;6.90;99.90
20670;DHT22;10494;50.868;4.180;2022-09-30T02:38:36;6.90;99.90
20670;DHT22;10494;50.868;4.180;2022-09-30T02:41:22;6.90;99.90
20670;DHT22;10494;50.868;4.180;2022-09-30T02:43:50;6.90;99.90
20670;DHT22;10494;50.868;4.180;2022-09-30T02:49:07;6.90;99.90
20670;DHT22;10494;50.868;4.180;2022-09-30T02:52:19;6.90;99.90
20670;DHT22;10494;50.868;4.180;2022-09-30T02:54:51;6.90;99.90
20670;DHT22;10494;50.868;4.180;2022-09-30T02:57:53;6.90;99.90
20670;DHT22;10494;50.868;4.180;2022-09-30T03:00:20;6.90;99.90
20670;DHT22;10494;50.868;4.180;2022-09-30T03:02:46;6.90;99.90
20670;DHT22;10494;50.868;4.180;2022-09-30T03:05:12;6.90;99.90
20670;DHT22;10494;50.868;4.180;2022-09-30T03:07:39;6.90;99.90
20670;DHT22;10494;50.868;4.180;2022-09-30T03:10:15;6.80;99.90
20670;DHT22;10494;50.868;4.180;2022-09-30T03:26:55;6.80;99.90
20670;DHT22;10494;50.868;4.180;2022-09-30T03:29:34;6.80;99.90
20670;DHT22;10494;50.868;4.180;2022-09-30T03:32:32;6.80;99.90
20670;DHT22;10494;50.868;4.180;2022-09-30T03:38:04;6.70;99.90
20670;DHT22;10494;50.868;4.180;2022-09-30T03:40:42;6.60;99.90
20670;DHT22;10494;50.868;4.180;2022-09-30T03:43:30;6.60;99.90
20670;DHT22;10494;50.868;4.180;2022-09-30T03:46:02;6.60;99.90
20670;DHT22;10494;50.868;4.180;2022-09-30T03:48:32;6.50;99.90
20670;DHT22;10494;50.868;4.180;2022-09-30T03:50:59;6.60;99.90
20670;DHT22;10494;50.868;4.180;2022-09-30T03:53:26;6.60;99.90
20670;DHT22;10494;50.868;4.180;2022-09-30T03:55:53;6.60;99.90
20670;DHT22;10494;50.868;4.180;2022-09-30T03:58:20;6.60;99.90
20670;DHT22;10494;50.868;4.180;2022-09-30T04:00:50;6.50;99.90
20670;DHT22;10494;50.868;4.180;2022-09-30T04:03:17;6.50;99.90
20670;DHT22;10494;50.868;4.180;2022-09-30T04:05:44;6.40;99.90
20670;DHT22;10494;50.868;4.180;2022-09-30T04:08:10;6.50;99.90
20670;DHT22;10494;50.868;4.180;2022-09-30T04:10:38;6.40;99.90
20670;DHT22;10494;50.868;4.180;2022-09-30T04:13:04;6.50;99.90
20670;DHT22;10494;50.868;4.180;2022-09-30T04:15:30;6.50;99.90
20670;DHT22;10494;50.868;4.180;2022-09-30T04:17:56;6.50;99.90
20670;DHT22;10494;50.868;4.180;2022-09-30T04:20:22;6.50;99.90
20670;DHT22;10494;50.868;4.180;2022-09-30T04:22:48;6.40;99.90
20670;DHT22;10494;50.868;4.180;2022-09-30T04:25:13;6.40;99.90
20670;DHT22;10494;50.868;4.180;2022-09-30T04:27:39;6.40;99.90
20670;DHT22;10494;50.868;4.180;2022-09-30T04:30:05;6.40;99.90
20670;DHT22;10494;50.868;4.180;2022-09-30T04:32:30;6.40;99.90
20670;DHT22;10494;50.868;4.180;2022-09-30T04:34:56;6.40;99.90
20670;DHT22;10494;50.868;4.180;2022-09-30T04:37:22;6.30;99.90
20670;DHT22;10494;50.868;4.180;2022-09-30T04:39:48;6.30;99.90
20670;DHT22;10494;50.868;4.180;2022-09-30T04:42:14;6.30;99.90
20670;DHT22;10494;50.868;4.180;2022-09-30T04:44:42;6.30;99.90
20670;DHT22;10494;50.868;4.180;2022-09-30T04:47:08;6.20;99.90
20670;DHT22;10494;50.868;4.180;2022-09-30T04:49:34;6.20;99.90
20670;DHT22;10494;50.868;4.180;2022-09-30T04:51:59;6.20;99.90
20670;DHT22;10494;50.868;4.180;2022-09-30T04:54:25;6.20;99.90
20670;DHT22;10494;50.868;4.180;2022-09-30T04:56:50;6.20;99.90
20670;DHT22;10494;50.868;4.180;2022-09-30T04:59:16;6.20;99.90
20670;DHT22;10494;50.868;4.180;2022-09-30T05:01:41;6.10;99.90
20670;DHT22;10494;50.868;4.180;2022-09-30T05:04:09;6.10;99.90
20670;DHT22;10494;50.868;4.180;2022-09-30T05:06:36;6.10;99.90
20670;DHT22;10494;50.868;4.180;2022-09-30T05:09:04;6.10;99.90
20670;DHT22;10494;50.868;4.180;2022-09-30T05:11:30;6.10;99.90
20670;DHT22;10494;50.868;4.180;2022-09-30T05:13:56;6.10;99.90
20670;DHT22;10494;50.868;4.180;2022-09-30T05:16:21;6.10;99.90
20670;DHT22;10494;50.868;4.180;2022-09-30T05:18:47;6.10;99.90
20670;DHT22;10494;50.868;4.180;2022-09-30T05:21:16;6.10;99.90
20670;DHT22;10494;50.868;4.180;2022-09-30T05:23:41;6.10;99.90
20670;DHT22;10494;50.868;4.180;2022-09-30T05:26:07;6.10;99.90
20670;DHT22;10494;50.868;4.180;2022-09-30T05:28:33;6.10;99.90
20670;DHT22;10494;50.868;4.180;2022-09-30T05:31:01;6.10;99.90
20670;DHT22;10494;50.868;4.180;2022-09-30T05:33:29;6.10;99.90
20670;DHT22;10494;50.868;4.180;2022-09-30T05:35:58;6.00;99.90
20670;DHT22;10494;50.868;4.180;2022-09-30T05:38:25;6.00;99.90
20670;DHT22;10494;50.868;4.180;2022-09-30T05:40:50;6.00;99.90
20670;DHT22;10494;50.868;4.180;2022-09-30T05:43:16;6.00;99.90
20670;DHT22;10494;50.868;4.180;2022-09-30T05:45:51;6.00;99.90
20670;DHT22;10494;50.868;4.180;2022-09-30T05:48:16;6.00;99.90
20670;DHT22;10494;50.868;4.180;2022-09-30T05:50:42;6.10;99.90
20670;DHT22;10494;50.868;4.180;2022-09-30T05:53:08;6.10;99.90
20670;DHT22;10494;50.868;4.180;2022-09-30T05:55:33;6.10;99.90
20670;DHT22;10494;50.868;4.180;2022-09-30T05:57:59;6.10;99.90
20670;DHT22;10494;50.868;4.180;2022-09-30T06:00:24;6.10;99.90
20670;DHT22;10494;50.868;4.180;2022-09-30T06:02:50;6.10;99.90
20670;DHT22;10494;50.868;4.180;2022-09-30T06:05:16;6.10;99.90
20670;DHT22;10494;50.868;4.180;2022-09-30T06:07:43;6.10;99.90
20670;DHT22;10494;50.868;4.180;2022-09-30T06:10:08;6.00;99.90
20670;DHT22;10494;50.868;4.180;2022-09-30T06:12:37;6.10;99.90
20670;DHT22;10494;50.868;4.180;2022-09-30T06:15:04;6.20;99.90
20670;DHT22;10494;50.868;4.180;2022-09-30T06:17:29;6.20;99.90
20670;DHT22;10494;50.868;4.180;2022-09-30T06:19:55;6.30;99.90
20670;DHT22;10494;50.868;4.180;2022-09-30T06:22:21;6.30;99.90
20670;DHT22;10494;50.868;4.180;2022-09-30T06:24:46;6.40;99.90
20670;DHT22;10494;50.868;4.180;2022-09-30T06:27:12;6.50;99.90
20670;DHT22;10494;50.868;4.180;2022-09-30T06:29:38;6.50;99.90
20670;DHT22;10494;50.868;4.180;2022-09-30T06:32:05;6.50;99.90
20670;DHT22;10494;50.868;4.180;2022-09-30T06:34:31;6.70;99.90
20670;DHT22;10494;50.868;4.180;2022-09-30T06:36:56;6.80;99.90
20670;DHT22;10494;50.868;4.180;2022-09-30T06:39:22;6.80;99.90
20670;DHT22;10494;50.868;4.180;2022-09-30T06:41:48;7.00;99.90
20670;DHT22;10494;50.868;4.180;2022-09-30T06:44:14;6.90;99.90
20670;DHT22;10494;50.868;4.180;2022-09-30T06:46:39;7.10;99.90
20670;DHT22;10494;50.868;4.180;2022-09-30T06:49:05;7.20;99.90
20670;DHT22;10494;50.868;4.180;2022-09-30T06:51:32;7.20;99.90
20670;DHT22;10494;50.868;4.180;2022-09-30T06:53:58;7.20;99.90
20670;DHT22;10494;50.868;4.180;2022-09-30T06:56:25;7.30;99.90
20670;DHT22;10494;50.868;4.180;2022-09-30T06:58:50;7.40;99.90
20670;DHT22;10494;50.868;4.180;2022-09-30T07:01:16;7.50;99.90
20670;DHT22;10494;50.868;4.180;2022-09-30T07:03:44;7.60;99.90
20670;DHT22;10494;50.868;4.180;2022-09-30T07:06:12;7.80;99.90
20670;DHT22;10494;50.868;4.180;2022-09-30T07:08:38;7.90;99.90
20670;DHT22;10494;50.868;4.180;2022-09-30T07:11:07;8.00;99.90
20670;DHT22;10494;50.868;4.180;2022-09-30T07:13:37;8.20;99.90
20670;DHT22;10494;50.868;4.180;2022-09-30T07:16:03;8.40;99.90
20670;DHT22;10494;50.868;4.180;2022-09-30T07:18:29;8.60;99.90
20670;DHT22;10494;50.868;4.180;2022-09-30T07:20:55;8.80;99.90
20670;DHT22;10494;50.868;4.180;2022-09-30T07:23:22;9.20;99.90
20670;DHT22;10494;50.868;4.180;2022-09-30T07:25:58;10.20;99.90
20670;DHT22;10494;50.868;4.180;2022-09-30T07:28:29;11.40;99.90
20670;DHT22;10494;50.868;4.180;2022-09-30T07:30:58;12.80;99.90
20670;DHT22;10494;50.868;4.180;2022-09-30T07:33:25;14.30;99.90
20670;DHT22;10494;50.868;4.180;2022-09-30T07:35:54;15.50;99.90
20670;DHT22;10494;50.868;4.180;2022-09-30T07:38:22;16.30;99.90
20670;DHT22;10494;50.868;4.180;2022-09-30T07:40:53;17.30;99.90
20670;DHT22;10494;50.868;4.180;2022-09-30T07:43:20;18.20;99.90
20670;DHT22;10494;50.868;4.180;2022-09-30T07:45:47;18.50;99.90
20670;DHT22;10494;50.868;4.180;2022-09-30T07:48:12;19.20;99.90
20670;DHT22;10494;50.868;4.180;2022-09-30T07:50:58;19.30;99.90
20670;DHT22;10494;50.868;4.180;2022-09-30T07:53:24;19.60;99.90
20670;DHT22;10494;50.868;4.180;2022-09-30T07:55:49;20.20;99.90
20670;DHT22;10494;50.868;4.180;2022-09-30T07:58:15;20.30;99.90
20670;DHT22;10494;50.868;4.180;2022-09-30T08:00:40;20.80;99.90
20670;DHT22;10494;50.868;4.180;2022-09-30T08:03:07;20.20;99.90
20670;DHT22;10494;50.868;4.180;2022-09-30T08:05:38;20.00;99.90
20670;DHT22;10494;50.868;4.180;2022-09-30T08:08:04;20.00;99.90
20670;DHT22;10494;50.868;4.180;2022-09-30T08:10:34;20.70;99.90
20670;DHT22;10494;50.868;4.180;2022-09-30T08:12:59;21.30;99.90
20670;DHT22;10494;50.868;4.180;2022-09-30T08:15:25;21.30;99.90
20670;DHT22;10494;50.868;4.180;2022-09-30T08:17:50;20.90;99.90
20670;DHT22;10494;50.868;4.180;2022-09-30T08:20:16;20.60;99.90
20670;DHT22;10494;50.868;4.180;2022-09-30T08:22:41;21.10;99.90
20670;DHT22;10494;50.868;4.180;2022-09-30T08:25:07;21.30;99.90
20670;DHT22;10494;50.868;4.180;2022-09-30T08:27:33;20.80;99.90
20670;DHT22;10494;50.868;4.180;2022-09-30T08:29:58;20.60;99.90
20670;DHT22;10494;50.868;4.180;2022-09-30T08:32:24;21.20;99.90
20670;DHT22;10494;50.868;4.180;2022-09-30T08:34:49;20.90;99.90
20670;DHT22;10494;50.868;4.180;2022-09-30T08:37:15;21.50;99.90
20670;DHT22;10494;50.868;4.180;2022-09-30T08:39:40;21.10;99.90
20670;DHT22;10494;50.868;4.180;2022-09-30T08:45:06;20.80;99.90
20670;DHT22;10494;50.868;4.180;2022-09-30T08:53:16;20.80;99.90
20670;DHT22;10494;50.868;4.180;2022-09-30T08:55:45;21.40;99.90
20670;DHT22;10494;50.868;4.180;2022-09-30T08:58:32;22.20;99.90
20670;DHT22;10494;50.868;4.180;2022-09-30T09:03:49;23.20;99.90
20670;DHT22;10494;50.868;4.180;2022-09-30T09:09:09;24.30;99.90
20670;DHT22;10494;50.868;4.180;2022-09-30T09:20:14;23.50;99.90
20670;DHT22;10494;50.868;4.180;2022-09-30T09:22:40;23.60;99.90
20670;DHT22;10494;50.868;4.180;2022-09-30T09:25:14;23.40;99.90
20670;DHT22;10494;50.868;4.180;2022-09-30T09:28:12;23.30;99.90
20670;DHT22;10494;50.868;4.180;2022-09-30T09:30:47;23.50;99.90
20670;DHT22;10494;50.868;4.180;2022-09-30T09:33:21;22.40;99.90
20670;DHT22;10494;50.868;4.180;2022-09-30T09:47:09;22.70;99.90
20670;DHT22;10494;50.868;4.180;2022-09-30T09:49:46;23.20;99.90
20670;DHT22;10494;50.868;4.180;2022-09-30T09:52:26;23.60;99.90
20670;DHT22;10494;50.868;4.180;2022-09-30T09:54:54;24.20;99.90
20670;DHT22;10494;50.868;4.180;2022-09-30T09:57:24;24.70;99.90
20670;DHT22;10494;50.868;4.180;2022-09-30T10:02:26;23.60;99.90
20670;DHT22;10494;50.868;4.180;2022-09-30T10:04:52;23.50;99.90
20670;DHT22;10494;50.868;4.180;2022-09-30T10:07:32;23.20;99.90
20670;DHT22;10494;50.868;4.180;2022-09-30T10:12:37;23.50;99.90
20670;DHT22;10494;50.868;4.180;2022-09-30T10:15:13;23.30;99.90
20670;DHT22;10494;50.868;4.180;2022-09-30T10:17:40;23.40;99.90
20670;DHT22;10494;50.868;4.180;2022-09-30T10:22:40;22.80;99.90
20670;DHT22;10494;50.868;4.180;2022-09-30T10:25:17;22.80;99.90
20670;DHT22;10494;50.868;4.180;2022-09-30T10:30:37;23.70;99.90
20670;DHT22;10494;50.868;4.180;2022-09-30T10:33:21;23.30;99.90
20670;DHT22;10494;50.868;4.180;2022-09-30T10:36:09;22.80;99.90
20670;DHT22;10494;50.868;4.180;2022-09-30T10:38:43;22.70;99.90
20670;DHT22;10494;50.868;4.180;2022-09-30T10:41:10;22.70;99.90
20670;DHT22;10494;50.868;4.180;2022-09-30T10:43:42;22.50;99.90
20670;DHT22;10494;50.868;4.180;2022-09-30T10:46:09;22.00;99.90
20670;DHT22;10494;50.868;4.180;2022-09-30T10:48:36;21.70;99.90
20670;DHT22;10494;50.868;4.180;2022-09-30T10:51:03;21.70;99.90
20670;DHT22;10494;50.868;4.180;2022-09-30T10:53:33;21.10;99.90
20670;DHT22;10494;50.868;4.180;2022-09-30T10:56:00;20.70;99.90
20670;DHT22;10494;50.868;4.180;2022-09-30T11:01:31;20.60;99.90
20670;DHT22;10494;50.868;4.180;2022-09-30T11:06:53;20.40;99.90
20670;DHT22;10494;50.868;4.180;2022-09-30T11:09:37;20.20;99.90
20670;DHT22;10494;50.868;4.180;2022-09-30T11:12:17;20.10;99.90
20670;DHT22;10494;50.868;4.180;2022-09-30T11:22:53;19.40;99.90
20670;DHT22;10494;50.868;4.180;2022-09-30T11:28:15;18.80;99.90
20670;DHT22;10494;50.868;4.180;2022-09-30T11:44:34;18.70;99.90
20670;DHT22;10494;50.868;4.180;2022-09-30T11:50:19;18.70;99.90
20670;DHT22;10494;50.868;4.180;2022-09-30T11:53:03;18.60;99.90
20670;DHT22;10494;50.868;4.180;2022-09-30T11:55:49;18.70;99.90
20670;DHT22;10494;50.868;4.180;2022-09-30T11:58:19;18.70;99.90
20670;DHT22;10494;50.868;4.180;2022-09-30T12:00:50;18.60;99.90
20670;DHT22;10494;50.868;4.180;2022-09-30T12:03:25;18.70;99.90
20670;DHT22;10494;50.868;4.180;2022-09-30T12:05:54;18.90;99.90
20670;DHT22;10494;50.868;4.180;2022-09-30T12:08:28;18.90;99.90
20670;DHT22;10494;50.868;4.180;2022-09-30T12:11:06;19.10;99.90
20670;DHT22;10494;50.868;4.180;2022-09-30T12:13:38;19.10;99.90
20670;DHT22;10494;50.868;4.180;2022-09-30T12:16:15;18.80;99.90
20670;DHT22;10494;50.868;4.180;2022-09-30T12:18:47;18.80;99.90
20670;DHT22;10494;50.868;4.180;2022-09-30T12:21:22;18.90;99.90
20670;DHT22;10494;50.868;4.180;2022-09-30T12:24:08;19.30;99.90
20670;DHT22;10494;50.868;4.180;2022-09-30T12:26:36;19.40;99.90
20670;DHT22;10494;50.868;4.180;2022-09-30T12:29:14;19.30;99.90
20670;DHT22;10494;50.868;4.180;2022-09-30T12:32:17;19.20;99.90
20670;DHT22;10494;50.868;4.180;2022-09-30T12:37:41;19.10;99.90
20670;DHT22;10494;50.868;4.180;2022-09-30T12:40:25;19.10;99.90
20670;DHT22;10494;50.868;4.180;2022-09-30T12:45:45;19.10;99.90
20670;DHT22;10494;50.868;4.180;2022-09-30T12:48:18;19.30;99.90
20670;DHT22;10494;50.868;4.180;2022-09-30T12:50:49;19.60;99.90
20670;DHT22;10494;50.868;4.180;2022-09-30T12:53:27;19.80;99.90
20670;DHT22;10494;50.868;4.180;2022-09-30T12:55:54;19.60;99.90
20670;DHT22;10494;50.868;4.180;2022-09-30T12:58:31;19.30;99.90
20670;DHT22;10494;50.868;4.180;2022-09-30T13:01:05;19.10;99.90
20670;DHT22;10494;50.868;4.180;2022-09-30T13:04:08;19.10;99.90
20670;DHT22;10494;50.868;4.180;2022-09-30T13:09:34;19.10;99.90
20670;DHT22;10494;50.868;4.180;2022-09-30T13:14:32;18.90;99.90
20670;DHT22;10494;50.868;4.180;2022-09-30T13:19:40;18.90;99.90
20670;DHT22;10494;50.868;4.180;2022-09-30T13:27:37;19.00;99.90
20670;DHT22;10494;50.868;4.180;2022-09-30T13:32:46;18.70;99.90
20670;DHT22;10494;50.868;4.180;2022-09-30T13:35:34;18.80;99.90
20670;DHT22;10494;50.868;4.180;2022-09-30T13:40:48;18.80;99.90
20670;DHT22;10494;50.868;4.180;2022-09-30T13:43:23;18.80;99.90
20670;DHT22;10494;50.868;4.180;2022-09-30T13:45:53;18.70;99.90
20670;DHT22;10494;50.868;4.180;2022-09-30T13:48:32;18.80;99.90
20670;DHT22;10494;50.868;4.180;2022-09-30T13:51:05;18.80;99.90
20670;DHT22;10494;50.868;4.180;2022-09-30T13:53:38;18.60;99.90
20670;DHT22;10494;50.868;4.180;2022-09-30T14:09:48;18.60;99.90
20670;DHT22;10494;50.868;4.180;2022-09-30T14:15:44;18.70;99.90
20670;DHT22;10494;50.868;4.180;2022-09-30T14:24:09;18.30;99.90
20670;DHT22;10494;50.868;4.180;2022-09-30T14:32:16;18.40;99.90
20670;DHT22;10494;50.868;4.180;2022-09-30T14:34:44;18.30;99.90
20670;DHT22;10494;50.868;4.180;2022-09-30T14:37:22;18.50;99.90
20670;DHT22;10494;50.868;4.180;2022-09-30T14:39:49;18.60;99.90
20670;DHT22;10494;50.868;4.180;2022-09-30T14:42:26;18.60;99.90
20670;DHT22;10494;50.868;4.180;2022-09-30T14:44:55;18.50;99.90
20670;DHT22;10494;50.868;4.180;2022-09-30T14:47:26;18.40;99.90
20670;DHT22;10494;50.868;4.180;2022-09-30T14:49:52;18.60;99.90
20670;DHT22;10494;50.868;4.180;2022-09-30T14:52:51;18.50;99.90
20670;DHT22;10494;50.868;4.180;2022-09-30T14:58:13;18.30;99.90
20670;DHT22;10494;50.868;4.180;2022-09-30T15:00:44;18.00;99.90
20670;DHT22;10494;50.868;4.180;2022-09-30T15:03:11;18.00;99.90
20670;DHT22;10494;50.868;4.180;2022-09-30T15:05:38;17.90;99.90
20670;DHT22;10494;50.868;4.180;2022-09-30T15:08:17;17.70;99.90
20670;DHT22;10494;50.868;4.180;2022-09-30T15:10:48;17.60;99.90
20670;DHT22;10494;50.868;4.180;2022-09-30T15:13:14;17.70;99.90
20670;DHT22;10494;50.868;4.180;2022-09-30T15:15:41;17.80;99.90
20670;DHT22;10494;50.868;4.180;2022-09-30T15:18:30;17.80;99.90
20670;DHT22;10494;50.868;4.180;2022-09-30T15:20:58;17.90;99.90
20670;DHT22;10494;50.868;4.180;2022-09-30T15:23:30;17.90;99.90
20670;DHT22;10494;50.868;4.180;2022-09-30T15:25:58;17.90;99.90
20670;DHT22;10494;50.868;4.180;2022-09-30T15:28:24;17.80;99.90
20670;DHT22;10494;50.868;4.180;2022-09-30T15:30:51;17.80;99.90
20670;DHT22;10494;50.868;4.180;2022-09-30T15:33:21;17.80;99.90
20670;DHT22;10494;50.868;4.180;2022-09-30T15:36:10;17.80;99.90
20670;DHT22;10494;50.868;4.180;2022-09-30T15:38:38;17.80;99.90
20670;DHT22;10494;50.868;4.180;2022-09-30T15:41:06;17.90;99.90
20670;DHT22;10494;50.868;4.180;2022-09-30T15:44:02;17.80;99.90
20670;DHT22;10494;50.868;4.180;2022-09-30T15:46:30;17.60;99.90
20670;DHT22;10494;50.868;4.180;2022-09-30T15:49:08;17.60;99.90
20670;DHT22;10494;50.868;4.180;2022-09-30T15:51:47;17.60;99.90
20670;DHT22;10494;50.868;4.180;2022-09-30T15:54:33;17.50;99.90
20670;DHT22;10494;50.868;4.180;2022-09-30T15:57:00;17.40;99.90
20670;DHT22;10494;50.868;4.180;2022-09-30T15:59:59;17.30;99.90
20670;DHT22;10494;50.868;4.180;2022-09-30T16:02:26;17.20;99.90
20670;DHT22;10494;50.868;4.180;2022-09-30T16:04:52;17.10;99.90
20670;DHT22;10494;50.868;4.180;2022-09-30T16:07:20;17.00;99.90
20670;DHT22;10494;50.868;4.180;2022-09-30T16:09:50;16.90;99.90
20670;DHT22;10494;50.868;4.180;2022-09-30T16:12:19;16.80;99.90
20670;DHT22;10494;50.868;4.180;2022-09-30T16:14:52;16.70;99.90
20670;DHT22;10494;50.868;4.180;2022-09-30T16:17:24;16.50;99.90
20670;DHT22;10494;50.868;4.180;2022-09-30T16:19:59;16.40;99.90
20670;DHT22;10494;50.868;4.180;2022-09-30T16:22:35;16.40;99.90
20670;DHT22;10494;50.868;4.180;2022-09-30T16:28:00;16.30;99.90
20670;DHT22;10494;50.868;4.180;2022-09-30T16:30:28;16.20;99.90
20670;DHT22;10494;50.868;4.180;2022-09-30T16:32:57;16.20;99.90
20670;DHT22;10494;50.868;4.180;2022-09-30T16:35:25;16.20;99.90
20670;DHT22;10494;50.868;4.180;2022-09-30T16:38:01;16.10;99.90
20670;DHT22;10494;50.868;4.180;2022-09-30T16:40:29;16.20;99.90
20670;DHT22;10494;50.868;4.180;2022-09-30T16:42:55;16.10;99.90
20670;DHT22;10494;50.868;4.180;2022-09-30T16:45:23;16.10;99.90
20670;DHT22;10494;50.868;4.180;2022-09-30T16:47:49;16.00;99.90
20670;DHT22;10494;50.868;4.180;2022-09-30T16:50:23;16.00;99.90
20670;DHT22;10494;50.868;4.180;2022-09-30T16:52:49;16.00;99.90
20670;DHT22;10494;50.868;4.180;2022-09-30T16:55:15;16.00;99.90
20670;DHT22;10494;50.868;4.180;2022-09-30T16:57:41;15.90;99.90
20670;DHT22;10494;50.868;4.180;2022-09-30T17:00:09;15.80;99.90
20670;DHT22;10494;50.868;4.180;2022-09-30T17:02:35;15.90;99.90
20670;DHT22;10494;50.868;4.180;2022-09-30T17:05:02;15.80;99.90
20670;DHT22;10494;50.868;4.180;2022-09-30T17:07:27;15.80;99.90
20670;DHT22;10494;50.868;4.180;2022-09-30T17:09:55;15.70;99.90
20670;DHT22;10494;50.868;4.180;2022-09-30T17:12:20;15.60;99.90
20670;DHT22;10494;50.868;4.180;2022-09-30T17:14:46;15.60;99.90
20670;DHT22;10494;50.868;4.180;2022-09-30T17:17:11;15.50;99.90
20670;DHT22;10494;50.868;4.180;2022-09-30T17:19:37;15.50;99.90
20670;DHT22;10494;50.868;4.180;2022-09-30T17:22:03;15.50;99.90
20670;DHT22;10494;50.868;4.180;2022-09-30T17:24:30;15.40;99.90
20670;DHT22;10494;50.868;4.180;2022-09-30T17:26:56;15.20;99.90
20670;DHT22;10494;50.868;4.180;2022-09-30T17:29:22;15.30;99.90
20670;DHT22;10494;50.868;4.180;2022-09-30T17:31:48;15.20;99.90
20670;DHT22;10494;50.868;4.180;2022-09-30T17:34:13;15.10;99.90
20670;DHT22;10494;50.868;4.180;2022-09-30T17:36:39;15.00;99.90
20670;DHT22;10494;50.868;4.180;2022-09-30T17:39:06;14.90;99.90
20670;DHT22;10494;50.868;4.180;2022-09-30T17:41:32;14.90;99.90
20670;DHT22;10494;50.868;4.180;2022-09-30T17:44:16;14.80;99.90
20670;DHT22;10494;50.868;4.180;2022-09-30T17:46:44;14.70;99.90
20670;DHT22;10494;50.868;4.180;2022-09-30T17:49:11;14.50;99.90
20670;DHT22;10494;50.868;4.180;2022-09-30T17:51:37;14.50;99.90
20670;DHT22;10494;50.868;4.180;2022-09-30T17:54:12;14.60;99.90
20670;DHT22;10494;50.868;4.180;2022-09-30T18:04:35;14.40;99.90
20670;DHT22;10494;50.868;4.180;2022-09-30T18:07:02;14.40;99.90
20670;DHT22;10494;50.868;4.180;2022-09-30T18:09:27;14.50;99.90
20670;DHT22;10494;50.868;4.180;2022-09-30T18:11:53;14.50;99.90
20670;DHT22;10494;50.868;4.180;2022-09-30T18:14:19;14.50;99.90
20670;DHT22;10494;50.868;4.180;2022-09-30T18:16:44;14.50;99.90
20670;DHT22;10494;50.868;4.180;2022-09-30T18:31:51;14.50;99.90
20670;DHT22;10494;50.868;4.180;2022-09-30T18:34:17;14.50;99.90
20670;DHT22;10494;50.868;4.180;2022-09-30T18:36:43;14.50;99.90
20670;DHT22;10494;50.868;4.180;2022-09-30T18:39:09;14.50;99.90
20670;DHT22;10494;50.868;4.180;2022-09-30T18:41:35;14.40;99.90
20670;DHT22;10494;50.868;4.180;2022-09-30T18:44:02;14.50;99.90
20670;DHT22;10494;50.868;4.180;2022-09-30T18:46:29;14.50;99.90
20670;DHT22;10494;50.868;4.180;2022-09-30T18:48:55;14.50;99.90
20670;DHT22;10494;50.868;4.180;2022-09-30T18:51:21;14.50;99.90
20670;DHT22;10494;50.868;4.180;2022-09-30T18:53:58;14.50;99.90
20670;DHT22;10494;50.868;4.180;2022-09-30T18:56:27;14.40;99.90
20670;DHT22;10494;50.868;4.180;2022-09-30T18:58:56;14.40;99.90
20670;DHT22;10494;50.868;4.180;2022-09-30T19:01:22;14.20;99.90
20670;DHT22;10494;50.868;4.180;2022-09-30T19:03:48;14.30;99.90
20670;DHT22;10494;50.868;4.180;2022-09-30T19:06:14;14.40;99.90
20670;DHT22;10494;50.868;4.180;2022-09-30T19:08:40;14.30;99.90
20670;DHT22;10494;50.868;4.180;2022-09-30T19:11:07;14.20;99.90
20670;DHT22;10494;50.868;4.180;2022-09-30T19:13:38;14.20;99.90
20670;DHT22;10494;50.868;4.180;2022-09-30T19:16:05;14.30;99.90
20670;DHT22;10494;50.868;4.180;2022-09-30T19:18:31;14.20;99.90
20670;DHT22;10494;50.868;4.180;2022-09-30T19:21:09;14.20;99.90
20670;DHT22;10494;50.868;4.180;2022-09-30T19:23:38;14.20;99.90